sensor_id;sensor_type;location;lat;lon;timestamp;temperature;humidity
64983;DHT22;62161;54.688;25.256;2022-10-16T00:01:34;12.69;80.28
64983;DHT22;62161;54.688;25.256;2022-10-16T00:04:00;12.59;80.63
64983;DHT22;62161;54.688;25.256;2022-10-16T00:06:27;12.55;80.85
64983;DHT22;62161;54.688;25.256;2022-10-16T00:08:53;12.53;80.89
64983;DHT22;62161;54.688;25.256;2022-10-16T00:11:28;12.50;81.01
64983;DHT22;62161;54.688;25.256;2022-10-16T00:13:57;12.59;80.76
64983;DHT22;62161;54.688;25.256;2022-10-16T00:16:23;12.70;80.36
64983;DHT22;62161;54.688;25.256;2022-10-16T00:18:48;12.73;80.32
64983;DHT22;62161;54.688;25.256;2022-10-16T00:21:18;12.72;80.07
64983;DHT22;62161;54.688;25.256;2022-10-16T00:23:44;12.72;80.09
64983;DHT22;62161;54.688;25.256;2022-10-16T00:26:15;12.67;80.43
64983;DHT22;62161;54.688;25.256;2022-10-16T00:28:41;12.57;80.79
64983;DHT22;62161;54.688;25.256;2022-10-16T00:31:09;12.52;81.02
64983;DHT22;62161;54.688;25.256;2022-10-16T00:33:35;12.53;81.02
64983;DHT22;62161;54.688;25.256;2022-10-16T00:36:02;12.52;81.11
64983;DHT22;62161;54.688;25.256;2022-10-16T00:38:28;12.45;81.35
64983;DHT22;62161;54.688;25.256;2022-10-16T00:40:54;12.59;80.90
64983;DHT22;62161;54.688;25.256;2022-10-16T00:43:55;12.52;81.19
64983;DHT22;62161;54.688;25.256;2022-10-16T00:46:40;12.49;81.43
64983;DHT22;62161;54.688;25.256;2022-10-16T00:49:09;12.50;81.41
64983;DHT22;62161;54.688;25.256;2022-10-16T00:51:43;12.43;81.74
64983;DHT22;62161;54.688;25.256;2022-10-16T00:54:21;12.42;81.70
64983;DHT22;62161;54.688;25.256;2022-10-16T00:56:49;12.48;81.59
64983;DHT22;62161;54.688;25.256;2022-10-16T00:59:20;12.59;80.92
64983;DHT22;62161;54.688;25.256;2022-10-16T01:01:47;12.72;80.65
64983;DHT22;62161;54.688;25.256;2022-10-16T01:04:13;12.67;80.79
64983;DHT22;62161;54.688;25.256;2022-10-16T01:06:47;12.56;81.22
64983;DHT22;62161;54.688;25.256;2022-10-16T01:12:11;12.60;81.14
64983;DHT22;62161;54.688;25.256;2022-10-16T01:14:46;12.56;81.26
64983;DHT22;62161;54.688;25.256;2022-10-16T01:17:17;12.50;81.69
64983;DHT22;62161;54.688;25.256;2022-10-16T01:22:15;12.45;82.02
64983;DHT22;62161;54.688;25.256;2022-10-16T01:24:45;12.52;81.58
64983;DHT22;62161;54.688;25.256;2022-10-16T01:27:27;12.62;81.16
64983;DHT22;62161;54.688;25.256;2022-10-16T01:35:03;12.60;81.26
64983;DHT22;62161;54.688;25.256;2022-10-16T01:37:39;12.63;80.99
64983;DHT22;62161;54.688;25.256;2022-10-16T01:40:11;12.66;80.81
64983;DHT22;62161;54.688;25.256;2022-10-16T01:42:41;12.55;81.23
64983;DHT22;62161;54.688;25.256;2022-10-16T01:45:08;12.50;81.40
64983;DHT22;62161;54.688;25.256;2022-10-16T01:47:37;12.43;81.69
64983;DHT22;62161;54.688;25.256;2022-10-16T01:50:04;12.53;81.35
64983;DHT22;62161;54.688;25.256;2022-10-16T01:52:32;12.55;81.40
64983;DHT22;62161;54.688;25.256;2022-10-16T01:55:00;12.43;82.04
64983;DHT22;62161;54.688;25.256;2022-10-16T01:57:28;12.39;82.03
64983;DHT22;62161;54.688;25.256;2022-10-16T01:59:57;12.32;82.35
64983;DHT22;62161;54.688;25.256;2022-10-16T02:02:26;12.36;82.16
64983;DHT22;62161;54.688;25.256;2022-10-16T02:07:57;12.31;82.62
64983;DHT22;62161;54.688;25.256;2022-10-16T02:10:23;12.25;83.25
64983;DHT22;62161;54.688;25.256;2022-10-16T02:13:00;12.29;83.24
64983;DHT22;62161;54.688;25.256;2022-10-16T02:15:28;12.35;83.56
64983;DHT22;62161;54.688;25.256;2022-10-16T02:17:54;12.33;83.69
64983;DHT22;62161;54.688;25.256;2022-10-16T02:20:25;12.21;84.45
64983;DHT22;62161;54.688;25.256;2022-10-16T02:22:53;12.18;84.21
64983;DHT22;62161;54.688;25.256;2022-10-16T02:25:26;12.11;84.72
64983;DHT22;62161;54.688;25.256;2022-10-16T02:30:39;12.11;84.75
64983;DHT22;62161;54.688;25.256;2022-10-16T02:33:09;12.04;85.02
64983;DHT22;62161;54.688;25.256;2022-10-16T02:35:36;12.06;85.10
64983;DHT22;62161;54.688;25.256;2022-10-16T02:38:04;12.18;84.61
64983;DHT22;62161;54.688;25.256;2022-10-16T02:40:30;12.17;84.62
64983;DHT22;62161;54.688;25.256;2022-10-16T02:42:56;12.10;85.41
64983;DHT22;62161;54.688;25.256;2022-10-16T02:45:22;12.06;85.40
64983;DHT22;62161;54.688;25.256;2022-10-16T02:47:48;12.08;85.13
64983;DHT22;62161;54.688;25.256;2022-10-16T02:50:14;12.18;85.11
64983;DHT22;62161;54.688;25.256;2022-10-16T02:52:39;12.22;84.48
64983;DHT22;62161;54.688;25.256;2022-10-16T02:55:05;12.18;84.37
64983;DHT22;62161;54.688;25.256;2022-10-16T02:57:31;12.20;84.35
64983;DHT22;62161;54.688;25.256;2022-10-16T02:59:57;12.25;83.92
64983;DHT22;62161;54.688;25.256;2022-10-16T03:02:22;12.14;84.33
64983;DHT22;62161;54.688;25.256;2022-10-16T03:04:47;12.17;84.57
64983;DHT22;62161;54.688;25.256;2022-10-16T03:07:13;12.10;84.51
64983;DHT22;62161;54.688;25.256;2022-10-16T03:09:38;12.17;84.34
64983;DHT22;62161;54.688;25.256;2022-10-16T03:12:04;12.12;84.80
64983;DHT22;62161;54.688;25.256;2022-10-16T03:14:29;12.05;85.17
64983;DHT22;62161;54.688;25.256;2022-10-16T03:16:55;12.04;85.11
64983;DHT22;62161;54.688;25.256;2022-10-16T03:19:20;12.05;85.13
64983;DHT22;62161;54.688;25.256;2022-10-16T03:21:46;12.06;85.05
64983;DHT22;62161;54.688;25.256;2022-10-16T03:24:11;12.21;84.17
64983;DHT22;62161;54.688;25.256;2022-10-16T03:26:36;12.28;83.87
64983;DHT22;62161;54.688;25.256;2022-10-16T03:29:02;12.22;83.79
64983;DHT22;62161;54.688;25.256;2022-10-16T03:31:29;12.24;83.82
64983;DHT22;62161;54.688;25.256;2022-10-16T03:33:54;12.18;83.94
64983;DHT22;62161;54.688;25.256;2022-10-16T03:36:20;12.22;83.86
64983;DHT22;62161;54.688;25.256;2022-10-16T03:38:45;12.11;84.50
64983;DHT22;62161;54.688;25.256;2022-10-16T03:41:10;12.08;84.60
64983;DHT22;62161;54.688;25.256;2022-10-16T03:43:36;12.11;84.09
64983;DHT22;62161;54.688;25.256;2022-10-16T03:46:01;12.14;84.04
64983;DHT22;62161;54.688;25.256;2022-10-16T03:48:26;12.05;84.26
64983;DHT22;62161;54.688;25.256;2022-10-16T03:50:52;12.02;84.42
64983;DHT22;62161;54.688;25.256;2022-10-16T03:53:17;11.91;85.04
64983;DHT22;62161;54.688;25.256;2022-10-16T03:55:44;11.97;84.69
64983;DHT22;62161;54.688;25.256;2022-10-16T03:58:10;11.94;84.93
64983;DHT22;62161;54.688;25.256;2022-10-16T04:00:35;11.87;85.10
64983;DHT22;62161;54.688;25.256;2022-10-16T04:03:01;11.88;84.98
64983;DHT22;62161;54.688;25.256;2022-10-16T04:05:26;11.74;85.30
64983;DHT22;62161;54.688;25.256;2022-10-16T04:07:52;11.80;84.96
64983;DHT22;62161;54.688;25.256;2022-10-16T04:10:17;11.73;85.36
64983;DHT22;62161;54.688;25.256;2022-10-16T04:12:43;11.60;85.72
64983;DHT22;62161;54.688;25.256;2022-10-16T04:15:08;11.53;86.07
64983;DHT22;62161;54.688;25.256;2022-10-16T04:17:35;11.62;85.81
64983;DHT22;62161;54.688;25.256;2022-10-16T04:20:00;11.56;85.71
64983;DHT22;62161;54.688;25.256;2022-10-16T04:22:25;11.56;85.79
64983;DHT22;62161;54.688;25.256;2022-10-16T04:24:51;11.44;86.63
64983;DHT22;62161;54.688;25.256;2022-10-16T04:27:16;11.40;86.52
64983;DHT22;62161;54.688;25.256;2022-10-16T04:29:42;11.50;86.15
64983;DHT22;62161;54.688;25.256;2022-10-16T04:32:08;11.47;86.17
64983;DHT22;62161;54.688;25.256;2022-10-16T04:34:34;11.44;86.52
64983;DHT22;62161;54.688;25.256;2022-10-16T04:37:00;11.54;85.86
64983;DHT22;62161;54.688;25.256;2022-10-16T04:39:25;11.60;85.61
64983;DHT22;62161;54.688;25.256;2022-10-16T04:41:50;11.53;85.84
64983;DHT22;62161;54.688;25.256;2022-10-16T04:44:16;11.56;86.13
64983;DHT22;62161;54.688;25.256;2022-10-16T04:46:41;11.66;85.60
64983;DHT22;62161;54.688;25.256;2022-10-16T04:49:06;11.63;85.62
64983;DHT22;62161;54.688;25.256;2022-10-16T04:51:32;11.67;85.68
64983;DHT22;62161;54.688;25.256;2022-10-16T04:53:58;11.74;84.93
64983;DHT22;62161;54.688;25.256;2022-10-16T04:56:23;11.84;84.33
64983;DHT22;62161;54.688;25.256;2022-10-16T04:58:49;11.73;84.92
64983;DHT22;62161;54.688;25.256;2022-10-16T05:01:14;11.71;85.37
64983;DHT22;62161;54.688;25.256;2022-10-16T05:03:40;11.75;84.77
64983;DHT22;62161;54.688;25.256;2022-10-16T05:06:06;11.71;85.02
64983;DHT22;62161;54.688;25.256;2022-10-16T05:08:32;11.69;85.08
64983;DHT22;62161;54.688;25.256;2022-10-16T05:10:57;11.81;84.95
64983;DHT22;62161;54.688;25.256;2022-10-16T05:13:23;11.78;84.97
64983;DHT22;62161;54.688;25.256;2022-10-16T05:15:49;11.75;85.58
64983;DHT22;62161;54.688;25.256;2022-10-16T05:18:15;11.71;85.37
64983;DHT22;62161;54.688;25.256;2022-10-16T05:20:41;11.70;85.59
64983;DHT22;62161;54.688;25.256;2022-10-16T05:23:06;11.67;85.87
64983;DHT22;62161;54.688;25.256;2022-10-16T05:25:32;11.71;85.88
64983;DHT22;62161;54.688;25.256;2022-10-16T05:27:57;11.74;85.56
64983;DHT22;62161;54.688;25.256;2022-10-16T05:30:23;11.78;85.28
64983;DHT22;62161;54.688;25.256;2022-10-16T05:32:49;11.88;85.24
64983;DHT22;62161;54.688;25.256;2022-10-16T05:35:15;11.95;84.99
64983;DHT22;62161;54.688;25.256;2022-10-16T05:37:41;12.14;84.43
64983;DHT22;62161;54.688;25.256;2022-10-16T05:40:07;12.26;83.40
64983;DHT22;62161;54.688;25.256;2022-10-16T05:42:32;12.62;81.90
64983;DHT22;62161;54.688;25.256;2022-10-16T05:44:58;12.59;81.26
64983;DHT22;62161;54.688;25.256;2022-10-16T05:47:23;12.45;82.02
64983;DHT22;62161;54.688;25.256;2022-10-16T05:49:49;12.25;82.57
64983;DHT22;62161;54.688;25.256;2022-10-16T05:52:14;12.15;83.09
64983;DHT22;62161;54.688;25.256;2022-10-16T05:54:39;12.06;83.27
64983;DHT22;62161;54.688;25.256;2022-10-16T05:57:05;11.92;83.93
64983;DHT22;62161;54.688;25.256;2022-10-16T05:59:31;11.92;83.93
64983;DHT22;62161;54.688;25.256;2022-10-16T06:01:57;11.90;83.87
64983;DHT22;62161;54.688;25.256;2022-10-16T06:04:22;11.97;83.72
64983;DHT22;62161;54.688;25.256;2022-10-16T06:06:48;11.99;83.42
64983;DHT22;62161;54.688;25.256;2022-10-16T06:09:13;11.98;83.76
64983;DHT22;62161;54.688;25.256;2022-10-16T06:11:38;12.08;83.29
64983;DHT22;62161;54.688;25.256;2022-10-16T06:14:04;12.24;82.92
64983;DHT22;62161;54.688;25.256;2022-10-16T06:16:33;12.32;82.45
64983;DHT22;62161;54.688;25.256;2022-10-16T06:18:59;12.26;82.58
64983;DHT22;62161;54.688;25.256;2022-10-16T06:21:26;12.35;82.36
64983;DHT22;62161;54.688;25.256;2022-10-16T06:23:52;12.52;81.53
64983;DHT22;62161;54.688;25.256;2022-10-16T06:26:20;12.80;80.96
64983;DHT22;62161;54.688;25.256;2022-10-16T06:28:46;12.98;80.03
64983;DHT22;62161;54.688;25.256;2022-10-16T06:31:13;13.14;79.63
64983;DHT22;62161;54.688;25.256;2022-10-16T06:33:39;13.21;80.08
64983;DHT22;62161;54.688;25.256;2022-10-16T06:36:10;13.41;78.71
64983;DHT22;62161;54.688;25.256;2022-10-16T06:38:37;13.58;77.56
64983;DHT22;62161;54.688;25.256;2022-10-16T06:41:03;13.75;77.80
64983;DHT22;62161;54.688;25.256;2022-10-16T06:43:30;13.89;76.67
64983;DHT22;62161;54.688;25.256;2022-10-16T06:45:58;13.99;76.86
64983;DHT22;62161;54.688;25.256;2022-10-16T06:48:24;13.96;75.99
64983;DHT22;62161;54.688;25.256;2022-10-16T06:53:36;13.76;76.98
64983;DHT22;62161;54.688;25.256;2022-10-16T06:56:14;13.91;76.93
64983;DHT22;62161;54.688;25.256;2022-10-16T06:58:40;13.96;77.09
64983;DHT22;62161;54.688;25.256;2022-10-16T07:01:06;13.91;76.59
64983;DHT22;62161;54.688;25.256;2022-10-16T07:03:32;13.87;76.97
64983;DHT22;62161;54.688;25.256;2022-10-16T07:06:01;13.89;76.66
64983;DHT22;62161;54.688;25.256;2022-10-16T07:08:27;13.80;77.43
64983;DHT22;62161;54.688;25.256;2022-10-16T07:11:00;13.89;76.84
64983;DHT22;62161;54.688;25.256;2022-10-16T07:13:25;13.97;77.35
64983;DHT22;62161;54.688;25.256;2022-10-16T07:15:51;13.93;76.64
64983;DHT22;62161;54.688;25.256;2022-10-16T07:18:16;13.96;76.32
64983;DHT22;62161;54.688;25.256;2022-10-16T07:20:42;13.90;76.44
64983;DHT22;62161;54.688;25.256;2022-10-16T07:23:07;13.85;76.64
64983;DHT22;62161;54.688;25.256;2022-10-16T07:25:32;13.75;77.01
64983;DHT22;62161;54.688;25.256;2022-10-16T07:27:58;13.72;77.69
64983;DHT22;62161;54.688;25.256;2022-10-16T07:30:23;13.69;77.40
64983;DHT22;62161;54.688;25.256;2022-10-16T07:32:49;13.66;77.55
64983;DHT22;62161;54.688;25.256;2022-10-16T07:35:14;13.72;77.58
64983;DHT22;62161;54.688;25.256;2022-10-16T07:37:44;13.80;77.54
64983;DHT22;62161;54.688;25.256;2022-10-16T07:40:09;13.75;77.35
64983;DHT22;62161;54.688;25.256;2022-10-16T07:42:35;13.87;77.05
64983;DHT22;62161;54.688;25.256;2022-10-16T07:45:00;13.93;76.59
64983;DHT22;62161;54.688;25.256;2022-10-16T07:47:26;13.96;76.45
64983;DHT22;62161;54.688;25.256;2022-10-16T07:49:51;13.96;76.44
64983;DHT22;62161;54.688;25.256;2022-10-16T07:52:17;13.90;76.49
64983;DHT22;62161;54.688;25.256;2022-10-16T07:54:42;13.83;77.00
64983;DHT22;62161;54.688;25.256;2022-10-16T07:57:07;13.83;76.92
64983;DHT22;62161;54.688;25.256;2022-10-16T07:59:33;13.94;77.31
64983;DHT22;62161;54.688;25.256;2022-10-16T08:01:58;13.90;76.82
64983;DHT22;62161;54.688;25.256;2022-10-16T08:04:23;13.97;77.37
64983;DHT22;62161;54.688;25.256;2022-10-16T08:06:49;14.09;76.07
64983;DHT22;62161;54.688;25.256;2022-10-16T08:09:15;14.10;76.54
64983;DHT22;62161;54.688;25.256;2022-10-16T08:11:40;14.33;75.97
64983;DHT22;62161;54.688;25.256;2022-10-16T08:14:05;14.33;75.71
64983;DHT22;62161;54.688;25.256;2022-10-16T08:16:31;14.41;75.78
64983;DHT22;62161;54.688;25.256;2022-10-16T08:18:56;14.41;75.74
64983;DHT22;62161;54.688;25.256;2022-10-16T08:21:22;14.35;76.52
64983;DHT22;62161;54.688;25.256;2022-10-16T08:23:49;14.42;76.89
64983;DHT22;62161;54.688;25.256;2022-10-16T08:26:15;14.35;77.09
64983;DHT22;62161;54.688;25.256;2022-10-16T08:28:40;14.40;76.48
64983;DHT22;62161;54.688;25.256;2022-10-16T08:31:11;14.51;76.05
64983;DHT22;62161;54.688;25.256;2022-10-16T08:33:37;14.41;76.67
64983;DHT22;62161;54.688;25.256;2022-10-16T08:36:04;14.49;75.77
64983;DHT22;62161;54.688;25.256;2022-10-16T08:38:30;14.45;76.07
64983;DHT22;62161;54.688;25.256;2022-10-16T08:46:29;14.46;75.78
64983;DHT22;62161;54.688;25.256;2022-10-16T08:49:00;14.23;77.00
64983;DHT22;62161;54.688;25.256;2022-10-16T08:51:30;14.25;77.07
64983;DHT22;62161;54.688;25.256;2022-10-16T08:53:58;14.35;76.82
64983;DHT22;62161;54.688;25.256;2022-10-16T08:56:25;14.49;76.39
64983;DHT22;62161;54.688;25.256;2022-10-16T08:58:53;14.61;76.50
64983;DHT22;62161;54.688;25.256;2022-10-16T09:01:21;14.62;75.83
64983;DHT22;62161;54.688;25.256;2022-10-16T09:12:15;15.06;73.69
64983;DHT22;62161;54.688;25.256;2022-10-16T09:15:02;15.29;72.80
64983;DHT22;62161;54.688;25.256;2022-10-16T09:22:46;15.22;71.98
64983;DHT22;62161;54.688;25.256;2022-10-16T09:25:20;15.18;72.35
64983;DHT22;62161;54.688;25.256;2022-10-16T09:27:48;15.26;72.55
64983;DHT22;62161;54.688;25.256;2022-10-16T09:30:19;15.37;72.33
64983;DHT22;62161;54.688;25.256;2022-10-16T09:32:48;15.39;72.31
64983;DHT22;62161;54.688;25.256;2022-10-16T09:35:21;15.44;72.78
64983;DHT22;62161;54.688;25.256;2022-10-16T09:37:51;15.48;71.21
64983;DHT22;62161;54.688;25.256;2022-10-16T09:40:36;15.34;71.51
64983;DHT22;62161;54.688;25.256;2022-10-16T09:43:26;15.27;72.38
64983;DHT22;62161;54.688;25.256;2022-10-16T09:46:04;15.33;72.87
64983;DHT22;62161;54.688;25.256;2022-10-16T09:48:50;15.34;71.95
64983;DHT22;62161;54.688;25.256;2022-10-16T09:54:00;15.33;72.54
64983;DHT22;62161;54.688;25.256;2022-10-16T09:56:32;15.27;72.73
64983;DHT22;62161;54.688;25.256;2022-10-16T09:59:08;15.19;71.73
64983;DHT22;62161;54.688;25.256;2022-10-16T10:01:39;14.93;72.33
64983;DHT22;62161;54.688;25.256;2022-10-16T10:04:07;14.89;73.45
64983;DHT22;62161;54.688;25.256;2022-10-16T10:06:52;14.92;72.83
64983;DHT22;62161;54.688;25.256;2022-10-16T10:09:27;14.96;72.95
64983;DHT22;62161;54.688;25.256;2022-10-16T10:11:55;14.91;73.07
64983;DHT22;62161;54.688;25.256;2022-10-16T10:16:50;14.86;73.31
64983;DHT22;62161;54.688;25.256;2022-10-16T10:19:21;14.81;72.91
64983;DHT22;62161;54.688;25.256;2022-10-16T10:21:49;14.76;73.70
64983;DHT22;62161;54.688;25.256;2022-10-16T10:24:16;14.69;74.00
64983;DHT22;62161;54.688;25.256;2022-10-16T10:26:49;14.79;72.91
64983;DHT22;62161;54.688;25.256;2022-10-16T10:29:27;14.78;73.16
64983;DHT22;62161;54.688;25.256;2022-10-16T10:40:24;14.62;73.36
64983;DHT22;62161;54.688;25.256;2022-10-16T10:45:46;14.76;72.74
64983;DHT22;62161;54.688;25.256;2022-10-16T10:51:07;14.83;73.40
64983;DHT22;62161;54.688;25.256;2022-10-16T10:56:42;15.19;71.81
64983;DHT22;62161;54.688;25.256;2022-10-16T11:07:20;15.13;72.26
64983;DHT22;62161;54.688;25.256;2022-10-16T11:09:53;15.24;71.87
64983;DHT22;62161;54.688;25.256;2022-10-16T11:12:28;15.26;71.72
64983;DHT22;62161;54.688;25.256;2022-10-16T11:15:21;15.29;71.90
64983;DHT22;62161;54.688;25.256;2022-10-16T11:17:53;15.43;71.38
64983;DHT22;62161;54.688;25.256;2022-10-16T11:20:56;15.53;70.92
64983;DHT22;62161;54.688;25.256;2022-10-16T11:25:51;15.43;71.23
64983;DHT22;62161;54.688;25.256;2022-10-16T11:28:31;15.44;71.48
64983;DHT22;62161;54.688;25.256;2022-10-16T11:36:39;15.31;71.25
64983;DHT22;62161;54.688;25.256;2022-10-16T11:39:19;15.29;71.91
64983;DHT22;62161;54.688;25.256;2022-10-16T11:49:59;15.72;70.63
64983;DHT22;62161;54.688;25.256;2022-10-16T11:55:14;15.79;70.50
64983;DHT22;62161;54.688;25.256;2022-10-16T11:57:46;15.84;69.76
64983;DHT22;62161;54.688;25.256;2022-10-16T12:00:32;15.79;70.24
64983;DHT22;62161;54.688;25.256;2022-10-16T12:06:00;15.79;70.22
64983;DHT22;62161;54.688;25.256;2022-10-16T12:08:26;15.72;70.48
64983;DHT22;62161;54.688;25.256;2022-10-16T12:10:52;15.75;69.54
64983;DHT22;62161;54.688;25.256;2022-10-16T12:16:21;15.94;69.57
64983;DHT22;62161;54.688;25.256;2022-10-16T12:18:47;15.98;69.52
64983;DHT22;62161;54.688;25.256;2022-10-16T12:21:15;16.02;69.08
64983;DHT22;62161;54.688;25.256;2022-10-16T12:23:50;16.06;69.02
64983;DHT22;62161;54.688;25.256;2022-10-16T12:26:28;15.98;69.82
64983;DHT22;62161;54.688;25.256;2022-10-16T12:28:55;15.96;69.59
64983;DHT22;62161;54.688;25.256;2022-10-16T12:31:21;15.96;69.23
64983;DHT22;62161;54.688;25.256;2022-10-16T12:34:01;15.75;70.13
64983;DHT22;62161;54.688;25.256;2022-10-16T12:36:30;15.64;70.58
64983;DHT22;62161;54.688;25.256;2022-10-16T12:38:56;15.51;71.18
64983;DHT22;62161;54.688;25.256;2022-10-16T12:41:33;15.43;71.46
64983;DHT22;62161;54.688;25.256;2022-10-16T12:44:00;15.41;71.60
64983;DHT22;62161;54.688;25.256;2022-10-16T12:49:06;15.43;71.94
64983;DHT22;62161;54.688;25.256;2022-10-16T12:54:11;15.50;71.67
64983;DHT22;62161;54.688;25.256;2022-10-16T13:02:54;15.44;72.43
64983;DHT22;62161;54.688;25.256;2022-10-16T13:08:51;15.24;72.34
64983;DHT22;62161;54.688;25.256;2022-10-16T13:14:23;14.99;73.43
64983;DHT22;62161;54.688;25.256;2022-10-16T13:20:06;14.98;73.40
64983;DHT22;62161;54.688;25.256;2022-10-16T13:22:54;14.96;73.40
64983;DHT22;62161;54.688;25.256;2022-10-16T13:28:00;14.86;73.96
64983;DHT22;62161;54.688;25.256;2022-10-16T13:30:29;14.83;74.28
64983;DHT22;62161;54.688;25.256;2022-10-16T13:33:01;14.89;73.96
64983;DHT22;62161;54.688;25.256;2022-10-16T13:35:32;14.89;74.15
64983;DHT22;62161;54.688;25.256;2022-10-16T13:40:35;14.88;74.27
64983;DHT22;62161;54.688;25.256;2022-10-16T13:43:00;14.93;74.52
64983;DHT22;62161;54.688;25.256;2022-10-16T13:45:27;14.95;74.22
64983;DHT22;62161;54.688;25.256;2022-10-16T13:48:03;14.92;74.68
64983;DHT22;62161;54.688;25.256;2022-10-16T13:50:29;14.98;74.41
64983;DHT22;62161;54.688;25.256;2022-10-16T13:53:12;15.03;74.21
64983;DHT22;62161;54.688;25.256;2022-10-16T13:55:38;14.98;74.59
64983;DHT22;62161;54.688;25.256;2022-10-16T13:58:14;15.10;74.32
64983;DHT22;62161;54.688;25.256;2022-10-16T14:00:42;15.03;74.53
64983;DHT22;62161;54.688;25.256;2022-10-16T14:03:19;15.10;74.63
64983;DHT22;62161;54.688;25.256;2022-10-16T14:05:51;15.10;74.59
64983;DHT22;62161;54.688;25.256;2022-10-16T14:08:17;15.04;75.00
64983;DHT22;62161;54.688;25.256;2022-10-16T14:10:47;15.10;75.01
64983;DHT22;62161;54.688;25.256;2022-10-16T14:13:19;15.20;74.56
64983;DHT22;62161;54.688;25.256;2022-10-16T14:15:47;15.20;74.75
64983;DHT22;62161;54.688;25.256;2022-10-16T14:18:20;15.18;74.96
64983;DHT22;62161;54.688;25.256;2022-10-16T14:20:48;15.23;74.79
64983;DHT22;62161;54.688;25.256;2022-10-16T14:23:29;15.27;74.75
64983;DHT22;62161;54.688;25.256;2022-10-16T14:28:33;15.29;74.86
64983;DHT22;62161;54.688;25.256;2022-10-16T14:31:00;15.20;75.04
64983;DHT22;62161;54.688;25.256;2022-10-16T14:38:25;15.23;75.45
64983;DHT22;62161;54.688;25.256;2022-10-16T14:40:50;15.30;74.89
64983;DHT22;62161;54.688;25.256;2022-10-16T14:43:29;15.22;75.27
64983;DHT22;62161;54.688;25.256;2022-10-16T14:45:56;15.34;74.84
64983;DHT22;62161;54.688;25.256;2022-10-16T14:48:22;15.37;74.56
64983;DHT22;62161;54.688;25.256;2022-10-16T14:50:48;15.31;74.70
64983;DHT22;62161;54.688;25.256;2022-10-16T14:53:14;15.30;74.78
64983;DHT22;62161;54.688;25.256;2022-10-16T14:55:41;15.23;74.96
64983;DHT22;62161;54.688;25.256;2022-10-16T14:58:18;15.24;74.90
64983;DHT22;62161;54.688;25.256;2022-10-16T15:00:44;15.14;75.23
64983;DHT22;62161;54.688;25.256;2022-10-16T15:03:10;15.10;75.62
64983;DHT22;62161;54.688;25.256;2022-10-16T15:05:36;15.13;75.41
64983;DHT22;62161;54.688;25.256;2022-10-16T15:08:01;15.06;75.57
64983;DHT22;62161;54.688;25.256;2022-10-16T15:10:28;15.00;75.84
64983;DHT22;62161;54.688;25.256;2022-10-16T15:12:54;15.04;75.84
64983;DHT22;62161;54.688;25.256;2022-10-16T15:17:52;15.23;74.93
64983;DHT22;62161;54.688;25.256;2022-10-16T15:20:20;15.23;74.84
64983;DHT22;62161;54.688;25.256;2022-10-16T15:22:46;15.27;74.53
64983;DHT22;62161;54.688;25.256;2022-10-16T15:25:35;15.27;74.69
64983;DHT22;62161;54.688;25.256;2022-10-16T15:28:03;15.33;74.54
64983;DHT22;62161;54.688;25.256;2022-10-16T15:30:29;15.24;74.80
64983;DHT22;62161;54.688;25.256;2022-10-16T15:32:55;15.22;74.98
64983;DHT22;62161;54.688;25.256;2022-10-16T15:35:20;15.22;74.90
64983;DHT22;62161;54.688;25.256;2022-10-16T15:37:46;15.26;74.74
64983;DHT22;62161;54.688;25.256;2022-10-16T15:40:12;15.26;74.71
64983;DHT22;62161;54.688;25.256;2022-10-16T15:42:37;15.23;74.85
64983;DHT22;62161;54.688;25.256;2022-10-16T15:45:03;15.19;74.77
64983;DHT22;62161;54.688;25.256;2022-10-16T15:47:29;15.24;74.66
64983;DHT22;62161;54.688;25.256;2022-10-16T15:49:54;15.19;75.22
64983;DHT22;62161;54.688;25.256;2022-10-16T15:52:20;15.18;74.84
64983;DHT22;62161;54.688;25.256;2022-10-16T15:54:45;15.19;74.92
64983;DHT22;62161;54.688;25.256;2022-10-16T15:57:11;15.22;74.96
64983;DHT22;62161;54.688;25.256;2022-10-16T15:59:36;15.26;74.96
64983;DHT22;62161;54.688;25.256;2022-10-16T16:02:01;15.26;74.91
64983;DHT22;62161;54.688;25.256;2022-10-16T16:04:29;15.29;74.69
64983;DHT22;62161;54.688;25.256;2022-10-16T16:06:55;15.34;74.72
64983;DHT22;62161;54.688;25.256;2022-10-16T16:09:20;15.34;74.79
64983;DHT22;62161;54.688;25.256;2022-10-16T16:11:45;15.27;74.91
64983;DHT22;62161;54.688;25.256;2022-10-16T16:14:12;15.20;75.23
64983;DHT22;62161;54.688;25.256;2022-10-16T16:16:38;15.24;75.19
64983;DHT22;62161;54.688;25.256;2022-10-16T16:19:06;15.30;74.59
64983;DHT22;62161;54.688;25.256;2022-10-16T16:21:33;15.34;74.57
64983;DHT22;62161;54.688;25.256;2022-10-16T16:23:59;15.34;74.66
64983;DHT22;62161;54.688;25.256;2022-10-16T16:26:25;15.31;75.44
64983;DHT22;62161;54.688;25.256;2022-10-16T16:28:51;15.29;75.33
64983;DHT22;62161;54.688;25.256;2022-10-16T16:31:17;15.29;75.54
64983;DHT22;62161;54.688;25.256;2022-10-16T16:33:43;15.24;76.30
64983;DHT22;62161;54.688;25.256;2022-10-16T16:36:08;15.12;77.27
64983;DHT22;62161;54.688;25.256;2022-10-16T16:38:34;15.13;76.67
64983;DHT22;62161;54.688;25.256;2022-10-16T16:41:14;15.13;76.78
64983;DHT22;62161;54.688;25.256;2022-10-16T16:43:39;15.07;77.43
64983;DHT22;62161;54.688;25.256;2022-10-16T16:46:05;15.06;77.00
64983;DHT22;62161;54.688;25.256;2022-10-16T16:48:31;15.06;76.65
64983;DHT22;62161;54.688;25.256;2022-10-16T16:51:11;15.07;76.70
64983;DHT22;62161;54.688;25.256;2022-10-16T16:53:42;14.99;77.76
64983;DHT22;62161;54.688;25.256;2022-10-16T16:56:08;14.98;77.52
64983;DHT22;62161;54.688;25.256;2022-10-16T16:58:34;15.02;77.23
64983;DHT22;62161;54.688;25.256;2022-10-16T17:01:01;14.93;77.60
64983;DHT22;62161;54.688;25.256;2022-10-16T17:03:34;14.96;77.60
64983;DHT22;62161;54.688;25.256;2022-10-16T17:06:02;14.93;77.97
64983;DHT22;62161;54.688;25.256;2022-10-16T17:08:29;14.89;78.26
64983;DHT22;62161;54.688;25.256;2022-10-16T17:10:55;14.91;78.03
64983;DHT22;62161;54.688;25.256;2022-10-16T17:13:25;14.78;78.77
64983;DHT22;62161;54.688;25.256;2022-10-16T17:15:51;14.73;78.85
64983;DHT22;62161;54.688;25.256;2022-10-16T17:18:18;14.83;78.31
64983;DHT22;62161;54.688;25.256;2022-10-16T17:20:44;14.88;78.30
64983;DHT22;62161;54.688;25.256;2022-10-16T17:23:10;14.89;78.19
64983;DHT22;62161;54.688;25.256;2022-10-16T17:25:37;14.88;78.22
64983;DHT22;62161;54.688;25.256;2022-10-16T17:28:03;14.88;78.13
64983;DHT22;62161;54.688;25.256;2022-10-16T17:30:29;14.82;78.54
64983;DHT22;62161;54.688;25.256;2022-10-16T17:32:55;14.81;78.58